Spring Glen, Washington
Current Conditions -  °F | °C
As of 11:53 PM on Wednesday 28 Jan 2015 (Local Time) from KRNT Reporting Station
Broken Clouds Broken Clouds  
Wind Chill: 44°   Ceiling: 10000
Heat Index: 44°   Visibility: 10mi
Dew Point: 43°   Wind: 3mph
Humidity: 96%   Direction: 340°NNW
Pressure: 30.37"   Gusts: NA
Location:  47.6631°N, 121.723°W
Report Text: KRNT 290753Z AUTO 34003KT 10SM BKN100 07/06 A3037 RMK AO2 SLP288 T00670061 401110044
Loading
Personal Weather Stations






























Interactive Weather Map New forecast layout! Learn more

10-Day Weather Forecast

Advertisements
Track Severe Weather on mobile